Time;durP1;ratioP1;P1;durP2;ratioP2;P2;SDS_P1;SDS_P2;PMS_P1;PMS_P2;Temp;Humidity;BMP_temperature;BMP_pressure;BME280_temperature;BME280_humidity;BME280_pressure;Samples;Min_cycle;Max_cycle;Signal;HPM_P1;HPM_P2
2022/03/06 00:02:22;;;;;;;;;;;17.50;53.10;;;;;;5021086;28;20016;-52
2022/03/06 00:04:48;;;;;;;;;;;17.50;53.00;;;;;;5034601;28;19916;-51
2022/03/06 00:07:13;;;;;;;;;;;17.40;53.00;;;;;;5032832;28;19925;-54
2022/03/06 00:09:39;;;;;;;;;;;17.50;53.00;;;;;;5023446;28;20397;-52
2022/03/06 00:12:04;;;;;;;;;;;17.40;52.90;;;;;;5020525;28;19913;-52
2022/03/06 00:14:30;;;;;;;;;;;17.50;53.00;;;;;;5020847;28;20011;-53
2022/03/06 00:16:55;;;;;;;;;;;17.40;52.90;;;;;;5022130;28;19913;-55
2022/03/06 00:19:21;;;;;;;;;;;17.40;53.00;;;;;;5034297;28;20406;-53
2022/03/06 00:21:46;;;;;;;;;;;17.40;52.90;;;;;;5033058;28;19924;-55
2022/03/06 00:24:12;;;;;;;;;;;17.40;52.80;;;;;;5020216;28;20370;-54
2022/03/06 00:26:37;;;;;;;;;;;17.40;52.70;;;;;;5021681;28;20034;-51
2022/03/06 00:29:03;;;;;;;;;;;17.50;52.70;;;;;;5020414;28;19917;-54
2022/03/06 00:31:28;;;;;;;;;;;17.50;52.60;;;;;;5028093;28;20163;-53
2022/03/06 00:33:54;;;;;;;;;;;17.40;52.70;;;;;;5041091;28;19960;-54
2022/03/06 00:36:19;;;;;;;;;;;17.40;52.70;;;;;;5024069;28;20413;-53
2022/03/06 00:38:45;;;;;;;;;;;17.40;52.60;;;;;;5020189;28;20000;-54
2022/03/06 00:41:11;;;;;;;;;;;17.50;52.60;;;;;;5024427;28;19913;-52
2022/03/06 00:43:36;;;;;;;;;;;17.40;52.60;;;;;;5030812;28;19913;-54
2022/03/06 00:46:02;;;;;;;;;;;17.40;52.50;;;;;;5022812;28;19920;-53
2022/03/06 00:48:27;;;;;;;;;;;17.40;52.50;;;;;;5028967;28;19917;-53
2022/03/06 00:50:52;;;;;;;;;;;17.40;52.50;;;;;;5027899;28;20297;-53
2022/03/06 00:53:18;;;;;;;;;;;17.40;52.50;;;;;;5019623;28;19939;-51
2022/03/06 00:55:43;;;;;;;;;;;17.40;52.30;;;;;;5018266;28;19924;-54
2022/03/06 00:58:09;;;;;;;;;;;17.40;52.40;;;;;;5019073;28;20137;-51
2022/03/06 01:00:35;;;;;;;;;;;17.40;52.50;;;;;;5020772;28;19921;-54
2022/03/06 01:03:01;;;;;;;;;;;17.40;52.40;;;;;;5027209;28;19913;-53
2022/03/06 01:05:27;;;;;;;;;;;17.40;52.40;;;;;;5032873;28;20043;-53
2022/03/06 01:07:52;;;;;;;;;;;17.40;52.30;;;;;;5022353;28;19917;-53
2022/03/06 01:10:19;;;;;;;;;;;17.40;53.00;;;;;;5027539;28;19913;-53
2022/03/06 01:12:45;;;;;;;;;;;17.40;52.20;;;;;;5019941;28;20517;-54
2022/03/06 01:15:10;;;;;;;;;;;17.30;52.30;;;;;;5020321;28;19913;-51
2022/03/06 01:17:35;;;;;;;;;;;17.40;52.30;;;;;;5017923;28;21035;-53
2022/03/06 01:20:01;;;;;;;;;;;17.30;52.20;;;;;;5032584;28;19940;-52
2022/03/06 01:22:26;;;;;;;;;;;17.40;52.20;;;;;;5033786;28;19917;-54
2022/03/06 01:24:52;;;;;;;;;;;17.40;52.10;;;;;;5021446;28;19917;-53
2022/03/06 01:27:17;;;;;;;;;;;17.40;52.20;;;;;;5029543;28;19917;-54
2022/03/06 01:29:44;;;;;;;;;;;17.30;52.10;;;;;;5033701;28;20534;-53
2022/03/06 01:32:09;;;;;;;;;;;17.40;52.00;;;;;;5029851;28;20413;-54
2022/03/06 01:34:35;;;;;;;;;;;17.40;52.10;;;;;;5020269;28;19943;-51
2022/03/06 01:37:00;;;;;;;;;;;17.30;52.10;;;;;;5024064;28;19913;-54
2022/03/06 01:39:26;;;;;;;;;;;17.30;52.10;;;;;;5037427;28;19935;-54
2022/03/06 01:41:51;;;;;;;;;;;17.30;52.10;;;;;;5019851;28;19913;-51
2022/03/06 01:44:17;;;;;;;;;;;17.30;52.10;;;;;;5008078;28;19913;-53
2022/03/06 01:46:44;;;;;;;;;;;17.30;52.20;;;;;;5007993;28;19925;-51
2022/03/06 01:49:10;;;;;;;;;;;17.20;52.20;;;;;;5003601;28;19924;-51
2022/03/06 01:51:35;;;;;;;;;;;17.20;52.10;;;;;;5022415;28;19913;-51
2022/03/06 01:54:00;;;;;;;;;;;17.20;52.10;;;;;;5018721;28;19914;-51
2022/03/06 01:56:26;;;;;;;;;;;17.30;52.10;;;;;;5019642;28;20378;-54
2022/03/06 01:58:51;;;;;;;;;;;17.30;52.10;;;;;;5020163;28;19913;-50
2022/03/06 02:01:17;;;;;;;;;;;17.30;52.10;;;;;;5011491;28;19921;-51
2022/03/06 02:03:42;;;;;;;;;;;17.20;52.10;;;;;;5022634;28;19920;-52
2022/03/06 02:06:08;;;;;;;;;;;17.20;52.10;;;;;;5040506;28;20483;-53
2022/03/06 02:08:34;;;;;;;;;;;17.10;52.20;;;;;;5011268;28;19918;-53
2022/03/06 02:10:59;;;;;;;;;;;17.20;52.20;;;;;;5010126;28;19967;-55
2022/03/06 02:13:25;;;;;;;;;;;17.10;52.20;;;;;;5001131;28;19918;-55
2022/03/06 02:15:51;;;;;;;;;;;17.10;52.30;;;;;;5009707;28;19913;-55
2022/03/06 02:18:18;;;;;;;;;;;17.00;52.20;;;;;;4997126;28;19914;-54
2022/03/06 02:20:43;;;;;;;;;;;17.10;52.20;;;;;;5010059;28;19914;-57
2022/03/06 02:23:09;;;;;;;;;;;17.10;51.90;;;;;;5013201;28;19920;-54
2022/03/06 02:25:35;;;;;;;;;;;17.10;51.80;;;;;;5013744;28;19936;-50
2022/03/06 02:28:01;;;;;;;;;;;17.10;51.70;;;;;;4994473;28;20008;-52
2022/03/06 02:30:27;;;;;;;;;;;17.00;51.90;;;;;;5019116;28;20417;-54
2022/03/06 02:32:53;;;;;;;;;;;16.90;52.00;;;;;;5017039;28;20015;-51
2022/03/06 02:35:18;;;;;;;;;;;16.90;52.20;;;;;;5019113;28;20221;-51
2022/03/06 02:37:44;;;;;;;;;;;16.80;52.40;;;;;;5018003;28;19940;-51
2022/03/06 02:40:10;;;;;;;;;;;16.60;52.70;;;;;;5006787;28;20001;-51
2022/03/06 02:42:36;;;;;;;;;;;16.70;52.80;;;;;;5012991;28;19913;-52
2022/03/06 02:45:09;;;;;;;;;;;16.70;52.60;;;;;;5007409;28;19980;-51
2022/03/06 02:47:34;;;;;;;;;;;16.60;52.50;;;;;;5010022;28;20016;-51
2022/03/06 02:50:02;;;;;;;;;;;16.40;52.80;;;;;;4999740;28;20458;-53
2022/03/06 02:52:27;;;;;;;;;;;16.30;52.90;;;;;;5012427;28;19974;-55
2022/03/06 02:54:53;;;;;;;;;;;16.30;52.90;;;;;;5033262;28;20006;-52
2022/03/06 02:57:18;;;;;;;;;;;16.30;52.70;;;;;;5037131;28;20614;-52
2022/03/06 02:59:44;;;;;;;;;;;16.40;52.60;;;;;;5007041;28;19924;-51
2022/03/06 03:02:10;;;;;;;;;;;16.40;52.40;;;;;;5016862;28;20128;-54
2022/03/06 03:04:37;;;;;;;;;;;16.30;52.40;;;;;;5007771;28;19913;-53
2022/03/06 03:07:02;;;;;;;;;;;16.30;52.40;;;;;;4999257;28;20306;-53
2022/03/06 03:09:28;;;;;;;;;;;16.20;52.50;;;;;;5012027;28;19913;-54
2022/03/06 03:11:56;;;;;;;;;;;16.20;52.50;;;;;;5008718;28;19920;-52
2022/03/06 03:14:21;;;;;;;;;;;16.20;52.50;;;;;;5008092;28;20015;-52
2022/03/06 03:16:47;;;;;;;;;;;16.30;52.30;;;;;;5005735;28;20004;-53
2022/03/06 03:19:12;;;;;;;;;;;16.30;52.10;;;;;;5008664;28;19967;-53
2022/03/06 03:21:38;;;;;;;;;;;16.30;52.10;;;;;;5009843;28;19920;-54
2022/03/06 03:24:03;;;;;;;;;;;16.30;52.10;;;;;;5000283;28;20429;-54
2022/03/06 03:26:29;;;;;;;;;;;16.30;52.50;;;;;;5005131;28;19948;-54
2022/03/06 03:28:54;;;;;;;;;;;16.40;52.70;;;;;;5009118;28;19917;-51
2022/03/06 03:31:20;;;;;;;;;;;16.60;52.40;;;;;;5005055;28;19917;-50
2022/03/06 03:33:45;;;;;;;;;;;16.70;52.20;;;;;;5012404;28;19920;-53
2022/03/06 03:36:11;;;;;;;;;;;16.80;52.10;;;;;;5027255;28;20335;-54
2022/03/06 03:38:38;;;;;;;;;;;16.80;51.80;;;;;;5002023;28;22174;-51
2022/03/06 03:41:03;;;;;;;;;;;16.90;51.70;;;;;;5016833;28;19917;-54
2022/03/06 03:43:29;;;;;;;;;;;16.90;51.40;;;;;;5017506;28;20436;-52
2022/03/06 03:45:57;;;;;;;;;;;17.10;51.20;;;;;;5017092;28;20444;-52
2022/03/06 03:48:24;;;;;;;;;;;17.20;50.90;;;;;;4999733;28;19917;-51
2022/03/06 03:50:49;;;;;;;;;;;17.30;50.60;;;;;;5017306;28;20328;-54
2022/03/06 03:53:15;;;;;;;;;;;17.30;50.20;;;;;;5017758;28;19923;-51
2022/03/06 03:55:40;;;;;;;;;;;17.40;50.10;;;;;;5016688;28;20029;-55
2022/03/06 03:58:06;;;;;;;;;;;17.50;49.80;;;;;;5016866;28;19929;-50
2022/03/06 04:00:31;;;;;;;;;;;17.50;49.60;;;;;;5015594;28;19940;-53
2022/03/06 04:02:57;;;;;;;;;;;17.60;49.50;;;;;;5017780;28;19978;-54
2022/03/06 04:05:23;;;;;;;;;;;17.70;49.20;;;;;;5018130;28;19945;-55
2022/03/06 04:07:48;;;;;;;;;;;17.80;49.10;;;;;;5016665;28;20271;-53
2022/03/06 04:10:13;;;;;;;;;;;17.80;48.90;;;;;;5015321;28;19944;-52
2022/03/06 04:12:39;;;;;;;;;;;17.90;48.80;;;;;;5025658;28;19918;-54
2022/03/06 04:15:05;;;;;;;;;;;17.90;48.70;;;;;;5017577;28;20410;-54
2022/03/06 04:17:30;;;;;;;;;;;18.00;48.50;;;;;;5024077;28;19917;-51
2022/03/06 04:19:55;;;;;;;;;;;18.00;48.30;;;;;;5010542;28;20690;-52
2022/03/06 04:22:21;;;;;;;;;;;18.00;48.30;;;;;;5007912;28;19914;-53
2022/03/06 04:24:46;;;;;;;;;;;18.10;48.20;;;;;;5005778;28;19914;-53
2022/03/06 04:27:12;;;;;;;;;;;18.10;48.20;;;;;;5013622;28;19917;-55
2022/03/06 04:29:37;;;;;;;;;;;18.10;48.00;;;;;;5015672;28;20470;-51
2022/03/06 04:32:03;;;;;;;;;;;18.10;48.00;;;;;;5017492;28;19913;-56
2022/03/06 04:34:28;;;;;;;;;;;18.10;47.90;;;;;;5012411;28;20016;-55
2022/03/06 04:36:54;;;;;;;;;;;18.20;47.90;;;;;;5017554;28;19921;-55
2022/03/06 04:39:19;;;;;;;;;;;18.20;47.80;;;;;;4998898;28;19924;-51
2022/03/06 04:41:45;;;;;;;;;;;18.20;47.80;;;;;;4998125;28;19975;-54
2022/03/06 04:44:11;;;;;;;;;;;18.20;47.70;;;;;;5010160;28;20181;-55
2022/03/06 04:46:36;;;;;;;;;;;18.10;47.60;;;;;;4993436;28;19921;-55
2022/03/06 04:49:02;;;;;;;;;;;18.20;47.60;;;;;;5016391;28;19921;-54
2022/03/06 04:51:27;;;;;;;;;;;18.20;47.60;;;;;;4994819;28;19952;-52
2022/03/06 04:53:52;;;;;;;;;;;18.20;47.60;;;;;;5007762;28;19928;-54
2022/03/06 04:56:18;;;;;;;;;;;18.20;47.60;;;;;;5004475;28;19913;-51
2022/03/06 04:58:43;;;;;;;;;;;18.20;47.60;;;;;;5009271;28;19944;-54
2022/03/06 05:01:09;;;;;;;;;;;18.20;47.70;;;;;;5006207;28;19921;-52
2022/03/06 05:03:34;;;;;;;;;;;18.10;47.70;;;;;;5011808;28;19995;-53
2022/03/06 05:06:00;;;;;;;;;;;18.10;47.70;;;;;;5011609;28;19935;-52
2022/03/06 05:08:28;;;;;;;;;;;18.10;47.70;;;;;;5022512;28;19921;-54
2022/03/06 05:10:54;;;;;;;;;;;18.10;47.80;;;;;;4998168;28;19996;-52
2022/03/06 05:13:20;;;;;;;;;;;18.00;47.80;;;;;;5000719;28;20048;-52
2022/03/06 05:15:45;;;;;;;;;;;18.00;47.80;;;;;;4994076;28;19914;-52
2022/03/06 05:18:11;;;;;;;;;;;18.00;47.90;;;;;;5019942;28;19959;-54
2022/03/06 05:20:37;;;;;;;;;;;18.00;48.00;;;;;;5005075;28;20390;-51
2022/03/06 05:23:02;;;;;;;;;;;17.90;47.90;;;;;;4999923;28;20409;-54
2022/03/06 05:25:28;;;;;;;;;;;18.00;47.90;;;;;;4998844;28;20389;-53
2022/03/06 05:27:53;;;;;;;;;;;17.90;48.00;;;;;;5003756;28;19917;-53
2022/03/06 05:30:19;;;;;;;;;;;17.90;48.10;;;;;;4996830;28;19922;-53
2022/03/06 05:32:44;;;;;;;;;;;17.90;48.20;;;;;;4994792;28;19914;-53
2022/03/06 05:35:10;;;;;;;;;;;17.90;48.20;;;;;;5002688;28;19913;-53
2022/03/06 05:37:36;;;;;;;;;;;17.90;48.20;;;;;;5009909;28;19999;-51
2022/03/06 05:40:02;;;;;;;;;;;17.80;48.20;;;;;;4997812;28;19917;-52
2022/03/06 05:42:27;;;;;;;;;;;17.90;48.20;;;;;;4982355;28;19967;-52
2022/03/06 05:44:53;;;;;;;;;;;17.80;48.20;;;;;;4982579;28;20290;-54
2022/03/06 05:47:18;;;;;;;;;;;17.80;48.30;;;;;;5010707;28;19971;-54
2022/03/06 05:49:44;;;;;;;;;;;17.80;48.20;;;;;;4983275;28;19948;-54
2022/03/06 05:52:09;;;;;;;;;;;17.80;48.40;;;;;;4986944;28;19913;-53
2022/03/06 05:54:35;;;;;;;;;;;17.90;48.50;;;;;;5015404;28;20368;-52
2022/03/06 05:57:00;;;;;;;;;;;18.00;48.60;;;;;;5006362;28;19940;-51
2022/03/06 05:59:25;;;;;;;;;;;18.00;48.60;;;;;;5019112;28;20004;-53
2022/03/06 06:01:51;;;;;;;;;;;18.00;48.70;;;;;;5019127;28;19925;-55
2022/03/06 06:04:18;;;;;;;;;;;18.00;48.80;;;;;;5019154;28;20299;-50
2022/03/06 06:06:43;;;;;;;;;;;18.10;48.80;;;;;;5018141;28;19917;-53
2022/03/06 06:09:09;;;;;;;;;;;18.00;48.90;;;;;;5018868;28;19920;-55
2022/03/06 06:11:34;;;;;;;;;;;18.10;48.90;;;;;;5019221;28;19963;-55
2022/03/06 06:14:00;;;;;;;;;;;18.10;48.90;;;;;;5019326;28;20299;-55
2022/03/06 06:16:25;;;;;;;;;;;18.10;48.90;;;;;;5018938;28;19921;-55
2022/03/06 06:18:51;;;;;;;;;;;18.10;48.70;;;;;;5019126;28;20054;-55
2022/03/06 06:21:19;;;;;;;;;;;18.20;48.70;;;;;;5019288;28;19913;-54
2022/03/06 06:23:44;;;;;;;;;;;18.20;48.70;;;;;;5014621;28;19913;-53
2022/03/06 06:26:10;;;;;;;;;;;18.20;48.60;;;;;;5017242;28;19913;-52
2022/03/06 06:28:35;;;;;;;;;;;18.20;48.70;;;;;;5018668;28;19921;-53
2022/03/06 06:31:01;;;;;;;;;;;18.10;48.60;;;;;;4998372;28;19917;-54
2022/03/06 06:33:27;;;;;;;;;;;18.10;48.60;;;;;;5001587;28;19913;-55
2022/03/06 06:35:52;;;;;;;;;;;18.10;48.80;;;;;;5018715;28;20377;-54
2022/03/06 06:38:18;;;;;;;;;;;18.20;48.80;;;;;;5018299;28;19914;-50
2022/03/06 06:40:43;;;;;;;;;;;18.30;48.70;;;;;;5018323;28;19920;-55
2022/03/06 06:43:08;;;;;;;;;;;18.30;48.80;;;;;;5008485;28;20319;-56
2022/03/06 06:45:34;;;;;;;;;;;18.40;48.70;;;;;;5018053;28;19917;-56
2022/03/06 06:47:59;;;;;;;;;;;18.30;48.70;;;;;;5018543;28;20027;-50
2022/03/06 06:50:25;;;;;;;;;;;18.30;48.70;;;;;;5017325;28;19920;-54
2022/03/06 06:52:50;;;;;;;;;;;18.30;48.80;;;;;;5018295;28;20321;-55
2022/03/06 06:55:16;;;;;;;;;;;18.30;48.90;;;;;;5017141;28;19969;-51
2022/03/06 06:57:41;;;;;;;;;;;18.30;48.90;;;;;;4999673;28;19917;-51
2022/03/06 07:00:07;;;;;;;;;;;18.20;48.90;;;;;;5016817;28;20488;-54
2022/03/06 07:02:33;;;;;;;;;;;18.20;48.90;;;;;;5018478;28;19928;-57
2022/03/06 07:04:58;;;;;;;;;;;18.20;49.10;;;;;;5016872;28;20797;-55
2022/03/06 07:07:24;;;;;;;;;;;18.20;49.10;;;;;;5018492;28;19986;-55
2022/03/06 07:09:49;;;;;;;;;;;18.10;49.40;;;;;;5017719;28;20383;-56
2022/03/06 07:12:15;;;;;;;;;;;18.10;49.10;;;;;;5018098;28;19920;-54
2022/03/06 07:14:40;;;;;;;;;;;18.00;49.20;;;;;;5018527;28;19913;-53
2022/03/06 07:17:05;;;;;;;;;;;18.00;49.30;;;;;;5016764;28;19917;-55
2022/03/06 07:19:31;;;;;;;;;;;18.00;49.30;;;;;;5017707;28;19920;-54
2022/03/06 07:21:56;;;;;;;;;;;18.00;49.30;;;;;;5017332;28;19924;-55
2022/03/06 07:24:22;;;;;;;;;;;17.90;49.30;;;;;;5001066;28;19913;-54
2022/03/06 07:26:47;;;;;;;;;;;17.90;49.20;;;;;;5017668;28;19917;-53
2022/03/06 07:29:13;;;;;;;;;;;17.90;49.10;;;;;;5018535;28;19917;-54
2022/03/06 07:31:38;;;;;;;;;;;17.90;49.20;;;;;;5018790;28;20608;-56
2022/03/06 07:34:04;;;;;;;;;;;17.90;49.20;;;;;;5017569;28;19917;-56
2022/03/06 07:36:29;;;;;;;;;;;17.90;49.20;;;;;;5017435;28;19914;-55
2022/03/06 07:38:54;;;;;;;;;;;17.90;49.10;;;;;;5016614;28;20449;-55
2022/03/06 07:41:20;;;;;;;;;;;17.80;49.30;;;;;;5015473;28;19935;-54
2022/03/06 07:43:45;;;;;;;;;;;17.80;49.20;;;;;;5016818;28;19949;-54
2022/03/06 07:46:11;;;;;;;;;;;17.70;49.40;;;;;;5017656;28;19917;-54
2022/03/06 07:48:36;;;;;;;;;;;17.80;49.60;;;;;;5017426;28;20543;-55
2022/03/06 07:51:02;;;;;;;;;;;17.80;49.70;;;;;;5000118;28;20537;-56
2022/03/06 07:53:27;;;;;;;;;;;17.70;49.90;;;;;;5017380;28;19914;-55
2022/03/06 07:55:53;;;;;;;;;;;17.70;50.30;;;;;;5018645;28;20405;-56
2022/03/06 07:58:18;;;;;;;;;;;17.70;50.30;;;;;;5015941;28;19920;-51
2022/03/06 08:00:44;;;;;;;;;;;17.70;50.60;;;;;;5041692;22;19978;-57
2022/03/06 08:03:09;;;;;;;;;;;17.70;50.70;;;;;;5039695;28;19925;-57
2022/03/06 08:05:35;;;;;;;;;;;17.60;50.90;;;;;;5025078;28;19939;-57
2022/03/06 08:08:00;;;;;;;;;;;17.60;51.20;;;;;;5021925;28;19917;-56
2022/03/06 08:10:26;;;;;;;;;;;17.60;51.50;;;;;;5039686;28;20297;-56
2022/03/06 08:12:53;;;;;;;;;;;17.70;51.60;;;;;;5039437;28;21362;-58
2022/03/06 08:15:18;;;;;;;;;;;17.60;51.30;;;;;;5039808;28;19924;-59
2022/03/06 08:17:44;;;;;;;;;;;17.60;51.50;;;;;;5039541;28;19913;-56
2022/03/06 08:20:10;;;;;;;;;;;17.60;51.50;;;;;;5021841;28;19917;-57
2022/03/06 08:22:35;;;;;;;;;;;17.60;51.40;;;;;;5021611;28;19913;-57
2022/03/06 08:25:01;;;;;;;;;;;17.50;51.30;;;;;;5040489;28;20039;-57
2022/03/06 08:27:26;;;;;;;;;;;17.50;51.40;;;;;;5040905;28;19917;-58
2022/03/06 08:29:52;;;;;;;;;;;17.60;51.30;;;;;;5025214;28;19920;-57
2022/03/06 08:32:17;;;;;;;;;;;17.50;51.20;;;;;;5044303;28;19921;-57
2022/03/06 08:34:42;;;;;;;;;;;17.50;51.30;;;;;;5044575;28;19912;-56
2022/03/06 08:37:08;;;;;;;;;;;17.40;51.40;;;;;;5043166;28;19920;-57
2022/03/06 08:39:33;;;;;;;;;;;17.40;51.40;;;;;;5026089;28;20365;-59
2022/03/06 08:41:59;;;;;;;;;;;17.50;51.40;;;;;;5043515;28;19913;-57
2022/03/06 08:44:24;;;;;;;;;;;17.50;51.40;;;;;;5042132;28;19917;-57
2022/03/06 08:46:50;;;;;;;;;;;17.40;51.40;;;;;;5043971;28;19939;-57
2022/03/06 08:49:16;;;;;;;;;;;17.40;51.20;;;;;;5042826;28;19917;-56
2022/03/06 08:51:41;;;;;;;;;;;17.40;51.20;;;;;;5044577;28;19924;-56
2022/03/06 08:54:07;;;;;;;;;;;17.40;51.30;;;;;;5042374;28;19913;-56
2022/03/06 08:56:32;;;;;;;;;;;17.40;51.30;;;;;;5043050;28;19917;-55
2022/03/06 08:58:58;;;;;;;;;;;17.40;51.30;;;;;;5042634;28;19970;-58
2022/03/06 09:01:23;;;;;;;;;;;17.50;51.80;;;;;;5043306;28;19928;-57
2022/03/06 09:03:49;;;;;;;;;;;17.50;52.40;;;;;;5043854;28;19962;-56
2022/03/06 09:06:14;;;;;;;;;;;17.50;52.50;;;;;;5043739;28;19916;-57
2022/03/06 09:08:40;;;;;;;;;;;17.40;52.40;;;;;;5044604;28;20293;-54
2022/03/06 09:11:08;;;;;;;;;;;17.50;53.00;;;;;;5042665;28;19966;-56
2022/03/06 09:13:34;;;;;;;;;;;17.40;53.60;;;;;;5044181;28;20008;-58
2022/03/06 09:15:59;;;;;;;;;;;17.40;54.40;;;;;;5043192;28;19996;-57
2022/03/06 09:18:25;;;;;;;;;;;17.40;55.50;;;;;;5041489;28;19916;-52
2022/03/06 09:20:50;;;;;;;;;;;17.40;56.60;;;;;;5043198;28;19917;-58
2022/03/06 09:23:16;;;;;;;;;;;17.30;57.10;;;;;;5041076;28;20386;-56
2022/03/06 09:25:41;;;;;;;;;;;17.20;57.30;;;;;;5042722;28;19928;-55
2022/03/06 09:28:07;;;;;;;;;;;17.30;57.30;;;;;;5042959;28;19917;-55
2022/03/06 09:30:32;;;;;;;;;;;17.30;57.30;;;;;;5042456;28;19917;-55
2022/03/06 09:32:58;;;;;;;;;;;17.30;57.20;;;;;;5043165;28;19913;-51
2022/03/06 09:35:23;;;;;;;;;;;17.30;58.10;;;;;;5043387;28;19913;-54
2022/03/06 09:37:49;;;;;;;;;;;17.40;60.50;;;;;;5043096;28;19920;-55
2022/03/06 09:40:14;;;;;;;;;;;17.50;61.80;;;;;;5041044;28;19932;-55
2022/03/06 09:42:40;;;;;;;;;;;17.50;62.10;;;;;;5044036;28;19923;-56
2022/03/06 09:45:08;;;;;;;;;;;17.60;62.30;;;;;;5042938;28;19913;-57
2022/03/06 09:47:33;;;;;;;;;;;17.60;62.50;;;;;;5042498;28;19978;-55
2022/03/06 09:49:59;;;;;;;;;;;17.70;63.00;;;;;;5041530;28;20349;-56
2022/03/06 09:52:24;;;;;;;;;;;17.70;63.00;;;;;;5024672;28;19912;-54
2022/03/06 09:54:50;;;;;;;;;;;17.70;62.40;;;;;;5025060;28;19942;-54
2022/03/06 09:57:19;;;;;;;;;;;17.70;61.90;;;;;;5024799;28;20005;-51
2022/03/06 09:59:44;;;;;;;;;;;17.70;62.10;;;;;;5023102;28;19939;-59
2022/03/06 10:02:10;;;;;;;;;;;17.80;62.10;;;;;;5043301;28;19925;-55
2022/03/06 10:04:35;;;;;;;;;;;17.90;61.90;;;;;;5042618;28;20388;-56
2022/03/06 10:07:02;;;;;;;;;;;18.00;61.30;;;;;;5042479;28;19917;-55
2022/03/06 10:09:28;;;;;;;;;;;18.10;61.60;;;;;;5041104;28;19953;-56
2022/03/06 10:11:54;;;;;;;;;;;18.20;60.80;;;;;;5042809;28;20396;-53
2022/03/06 10:14:35;;;;;;;;;;;18.30;60.50;;;;;;5042437;28;19913;-56
2022/03/06 10:17:14;;;;;;;;;;;18.40;60.30;;;;;;5023642;28;19920;-56
2022/03/06 10:19:58;;;;;;;;;;;18.50;60.30;;;;;;5042222;28;19917;-54
2022/03/06 10:22:27;;;;;;;;;;;18.50;60.30;;;;;;5037633;28;19962;-55
2022/03/06 10:24:57;;;;;;;;;;;18.60;60.20;;;;;;5041927;28;19966;-55
2022/03/06 10:27:41;;;;;;;;;;;18.70;60.20;;;;;;5041978;28;20333;-57
2022/03/06 10:30:26;;;;;;;;;;;18.70;60.10;;;;;;5040524;28;19913;-54
2022/03/06 10:32:52;;;;;;;;;;;18.80;60.20;;;;;;5041892;28;19937;-57
2022/03/06 10:35:17;;;;;;;;;;;18.80;60.10;;;;;;5041870;28;19967;-55
2022/03/06 10:37:43;;;;;;;;;;;18.80;59.70;;;;;;5042618;28;19963;-55
2022/03/06 10:40:14;;;;;;;;;;;19.00;59.50;;;;;;5041426;28;19913;-56
2022/03/06 10:42:42;;;;;;;;;;;19.00;59.30;;;;;;5041383;28;19917;-56
2022/03/06 10:45:21;;;;;;;;;;;19.10;59.20;;;;;;5041747;28;19917;-56
2022/03/06 10:47:47;;;;;;;;;;;19.10;58.90;;;;;;5039279;28;20290;-58
2022/03/06 10:50:12;;;;;;;;;;;19.20;58.70;;;;;;5041594;28;19921;-57
2022/03/06 10:52:41;;;;;;;;;;;19.20;59.10;;;;;;5041261;28;19913;-56
2022/03/06 10:55:07;;;;;;;;;;;19.20;59.80;;;;;;5023514;28;19925;-56
2022/03/06 10:57:32;;;;;;;;;;;19.20;60.80;;;;;;5040887;28;20390;-58
2022/03/06 10:59:58;;;;;;;;;;;19.20;61.50;;;;;;5040321;28;20366;-57
2022/03/06 11:02:24;;;;;;;;;;;19.20;61.50;;;;;;5042266;28;20001;-57
2022/03/06 11:04:53;;;;;;;;;;;19.10;61.30;;;;;;5024398;28;19920;-54
2022/03/06 11:07:19;;;;;;;;;;;19.10;61.60;;;;;;5024096;28;19917;-55
2022/03/06 11:09:44;;;;;;;;;;;19.00;61.90;;;;;;5040737;28;19913;-59
2022/03/06 11:12:10;;;;;;;;;;;19.00;62.60;;;;;;5022616;28;19917;-56
2022/03/06 11:14:35;;;;;;;;;;;18.80;63.30;;;;;;5023302;28;20344;-57
2022/03/06 11:17:00;;;;;;;;;;;18.90;63.40;;;;;;5041243;28;20291;-57
2022/03/06 11:19:26;;;;;;;;;;;18.80;63.80;;;;;;5040573;28;19917;-57
2022/03/06 11:21:57;;;;;;;;;;;18.80;64.20;;;;;;5023578;28;19913;-55
2022/03/06 11:24:26;;;;;;;;;;;18.80;64.20;;;;;;5022388;28;19917;-57
2022/03/06 11:26:51;;;;;;;;;;;18.70;64.40;;;;;;5023282;28;20042;-54
2022/03/06 11:29:32;;;;;;;;;;;18.70;64.40;;;;;;5041499;28;19944;-55
2022/03/06 11:32:02;;;;;;;;;;;18.70;64.10;;;;;;5039905;28;19913;-55
2022/03/06 11:34:29;;;;;;;;;;;18.90;64.00;;;;;;5040503;28;19951;-55
2022/03/06 11:36:55;;;;;;;;;;;18.80;63.70;;;;;;5022024;28;19916;-55
2022/03/06 11:39:32;;;;;;;;;;;18.80;63.50;;;;;;5021859;28;20479;-53
2022/03/06 11:41:57;;;;;;;;;;;18.80;62.90;;;;;;5038805;28;19946;-56
2022/03/06 11:44:35;;;;;;;;;;;18.80;62.60;;;;;;5040929;28;20347;-56
2022/03/06 11:47:10;;;;;;;;;;;18.80;62.00;;;;;;5040259;28;19916;-56
2022/03/06 11:49:36;;;;;;;;;;;18.80;61.70;;;;;;5022534;28;19996;-55
2022/03/06 11:52:01;;;;;;;;;;;18.80;61.30;;;;;;5040303;28;19919;-57
2022/03/06 11:54:40;;;;;;;;;;;18.70;61.00;;;;;;5040634;28;19913;-55
2022/03/06 11:57:05;;;;;;;;;;;18.80;60.50;;;;;;5040800;28;19979;-55
2022/03/06 11:59:32;;;;;;;;;;;18.80;59.60;;;;;;5040381;28;20097;-55
2022/03/06 12:01:58;;;;;;;;;;;18.70;58.90;;;;;;5022265;28;19920;-55
2022/03/06 12:04:24;;;;;;;;;;;18.80;58.30;;;;;;5041010;28;19913;-57
2022/03/06 12:06:56;;;;;;;;;;;18.70;57.60;;;;;;5040234;28;20420;-56
2022/03/06 12:09:26;;;;;;;;;;;18.70;57.50;;;;;;5040429;28;19947;-55
2022/03/06 12:11:55;;;;;;;;;;;18.80;57.80;;;;;;5022923;28;19966;-56
2022/03/06 12:14:21;;;;;;;;;;;18.70;57.70;;;;;;5040827;28;20008;-56
2022/03/06 12:17:07;;;;;;;;;;;18.70;57.40;;;;;;5040735;28;19912;-51
2022/03/06 12:19:44;;;;;;;;;;;18.80;57.50;;;;;;5040347;28;19944;-56
2022/03/06 12:22:33;;;;;;;;;;;18.70;57.40;;;;;;5041668;28;20264;-56
2022/03/06 12:25:11;;;;;;;;;;;18.70;57.30;;;;;;5023118;28;20008;-55
2022/03/06 12:27:37;;;;;;;;;;;18.70;57.10;;;;;;5041259;28;19917;-56
2022/03/06 12:30:03;;;;;;;;;;;18.60;57.10;;;;;;5040468;28;19913;-55
2022/03/06 12:32:32;;;;;;;;;;;18.70;57.10;;;;;;5040697;28;19913;-56
2022/03/06 12:34:58;;;;;;;;;;;18.60;57.30;;;;;;5041494;28;19917;-54
2022/03/06 12:37:24;;;;;;;;;;;18.60;57.40;;;;;;5040901;28;19913;-52
2022/03/06 12:39:49;;;;;;;;;;;18.60;57.40;;;;;;5040587;28;19952;-56
2022/03/06 12:42:21;;;;;;;;;;;18.60;57.40;;;;;;5040526;28;19913;-56
2022/03/06 12:44:47;;;;;;;;;;;18.70;57.50;;;;;;5022964;28;20263;-56
2022/03/06 12:47:12;;;;;;;;;;;18.70;57.70;;;;;;5022219;28;19932;-54
2022/03/06 12:49:38;;;;;;;;;;;18.60;58.00;;;;;;5040065;28;19913;-53
2022/03/06 12:52:03;;;;;;;;;;;18.50;58.30;;;;;;5040622;28;19920;-55
2022/03/06 12:54:33;;;;;;;;;;;18.40;58.90;;;;;;5040378;28;20553;-55
2022/03/06 12:56:59;;;;;;;;;;;18.40;59.30;;;;;;5041172;28;20047;-53
2022/03/06 12:59:25;;;;;;;;;;;18.40;59.30;;;;;;5039664;28;19916;-55
2022/03/06 13:01:50;;;;;;;;;;;18.50;59.30;;;;;;5040779;28;19921;-55
2022/03/06 13:04:16;;;;;;;;;;;18.40;59.30;;;;;;5041086;28;20378;-55
2022/03/06 13:06:41;;;;;;;;;;;18.50;59.00;;;;;;5039919;28;19959;-56
2022/03/06 13:09:07;;;;;;;;;;;18.50;59.00;;;;;;5039444;28;20843;-54
2022/03/06 13:11:33;;;;;;;;;;;18.60;59.40;;;;;;5039827;28;19917;-54
2022/03/06 13:14:00;;;;;;;;;;;18.60;59.40;;;;;;5030469;28;20426;-54
2022/03/06 13:16:25;;;;;;;;;;;18.50;59.30;;;;;;5043288;28;19935;-55
2022/03/06 13:18:50;;;;;;;;;;;18.60;59.00;;;;;;5043198;28;19912;-56
2022/03/06 13:21:17;;;;;;;;;;;18.60;58.70;;;;;;5043441;28;19979;-55
2022/03/06 13:23:55;;;;;;;;;;;18.60;58.30;;;;;;5042677;28;20120;-56
2022/03/06 13:26:20;;;;;;;;;;;18.60;58.40;;;;;;5043550;28;20077;-54
2022/03/06 13:28:46;;;;;;;;;;;18.50;58.10;;;;;;5043115;28;19936;-54
2022/03/06 13:31:11;;;;;;;;;;;18.50;58.10;;;;;;5025211;28;19917;-55
2022/03/06 13:33:37;;;;;;;;;;;18.40;57.90;;;;;;5041867;28;20309;-54
2022/03/06 13:36:12;;;;;;;;;;;18.40;57.70;;;;;;5042108;28;19929;-56
2022/03/06 13:38:37;;;;;;;;;;;18.40;57.50;;;;;;5042053;28;19913;-54
2022/03/06 13:41:09;;;;;;;;;;;18.30;57.40;;;;;;5042641;28;19923;-57
2022/03/06 13:43:36;;;;;;;;;;;18.30;57.30;;;;;;5042626;28;20318;-57
2022/03/06 13:46:01;;;;;;;;;;;18.20;57.20;;;;;;5024324;28;20474;-56
2022/03/06 13:48:31;;;;;;;;;;;18.20;57.20;;;;;;5023672;28;19924;-55
2022/03/06 13:50:57;;;;;;;;;;;18.10;57.20;;;;;;5041879;28;19912;-55
2022/03/06 13:53:23;;;;;;;;;;;18.00;57.30;;;;;;5041057;28;19924;-52
2022/03/06 13:55:49;;;;;;;;;;;18.00;57.60;;;;;;5042554;28;19916;-55
2022/03/06 13:58:18;;;;;;;;;;;18.10;57.50;;;;;;5043429;28;19916;-55
2022/03/06 14:00:56;;;;;;;;;;;18.10;56.70;;;;;;5023949;28;19951;-55
2022/03/06 14:03:31;;;;;;;;;;;18.30;56.60;;;;;;5042540;28;20375;-56
2022/03/06 14:05:56;;;;;;;;;;;18.40;57.90;;;;;;5040396;28;19913;-55
2022/03/06 14:08:24;;;;;;;;;;;18.50;58.70;;;;;;5043236;28;20375;-57
2022/03/06 14:10:56;;;;;;;;;;;18.50;58.90;;;;;;5042427;28;20406;-55
2022/03/06 14:13:22;;;;;;;;;;;18.40;58.80;;;;;;5042359;28;19917;-58